Time;durP1;ratioP1;P1;durP2;ratioP2;P2;SDS_P1;SDS_P2;PMS_P1;PMS_P2;Temp;Humidity;BMP_temperature;BMP_pressure;BME280_temperature;BME280_humidity;BME280_pressure;Samples;Min_cycle;Max_cycle;Signal;HPM_P1;HPM_P2
2022/09/30 00:01:09;;;;;;;5.67;4.87;;;;;;;5.09;100.00;99288.97;4975349;28;20219;-64
2022/09/30 00:03:35;;;;;;;6.27;4.97;;;;;;;4.99;100.00;99288.56;4991511;28;20639;-65
2022/09/30 00:06:04;;;;;;;6.47;5.40;;;;;;;5.16;100.00;99291.16;4992375;28;20198;-64
2022/09/30 00:08:30;;;;;;;6.17;5.10;;;;;;;5.11;100.00;99297.34;4993237;28;20265;-64
2022/09/30 00:11:17;;;;;;;6.67;5.10;;;;;;;4.99;100.00;99293.66;4981896;28;20690;-65
2022/09/30 00:13:44;;;;;;;7.00;5.40;;;;;;;5.04;100.00;99298.56;4984198;28;20183;-64
2022/09/30 00:16:11;;;;;;;6.50;5.90;;;;;;;4.93;100.00;99294.75;4991022;28;20198;-64
2022/09/30 00:18:37;;;;;;;6.27;5.20;;;;;;;4.82;100.00;99299.47;4992767;28;20270;-65
2022/09/30 00:21:04;;;;;;;5.87;5.27;;;;;;;4.90;100.00;99297.44;4976141;28;20238;-64
2022/09/30 00:23:30;;;;;;;6.77;5.43;;;;;;;4.94;100.00;99300.69;4976190;28;20190;-64
2022/09/30 00:26:01;;;;;;;6.23;5.00;;;;;;;5.05;100.00;99307.81;4990849;28;20179;-65
2022/09/30 00:28:27;;;;;;;6.10;5.50;;;;;;;5.08;100.00;99311.06;4992150;28;20187;-64
2022/09/30 00:30:53;;;;;;;8.57;5.30;;;;;;;4.95;100.00;99304.84;4982056;28;20621;-64
2022/09/30 00:33:19;;;;;;;7.73;5.10;;;;;;;5.07;100.00;99311.97;4988086;28;20195;-64
2022/09/30 00:35:44;;;;;;;5.07;4.47;;;;;;;5.00;100.00;99308.06;4990077;28;20327;-64
2022/09/30 00:38:10;;;;;;;5.77;4.80;;;;;;;4.93;100.00;99310.03;4991977;28;20187;-64
2022/09/30 00:40:38;;;;;;;5.13;4.70;;;;;;;4.77;100.00;99304.78;4986045;28;20238;-64
2022/09/30 00:43:11;;;;;;;8.53;6.00;;;;;;;4.78;100.00;99311.53;4982101;28;20195;-64
2022/09/30 00:45:37;;;;;;;7.50;5.50;;;;;;;4.75;100.00;99303.19;4991907;28;20262;-65
2022/09/30 00:48:27;;;;;;;6.07;5.47;;;;;;;4.50;100.00;99302.53;4991720;28;20325;-64
2022/09/30 00:50:54;;;;;;;9.00;5.70;;;;;;;4.43;100.00;99303.69;4976344;28;20238;-64
2022/09/30 00:53:25;;;;;;;6.73;4.90;;;;;;;4.37;100.00;99298.84;4988097;28;20175;-64
2022/09/30 00:55:56;;;;;;;9.03;5.67;;;;;;;4.45;100.00;99301.06;4989646;28;20191;-65
2022/09/30 00:58:29;;;;;;;7.23;4.80;;;;;;;4.52;100.00;99299.91;4991279;28;20286;-66
2022/09/30 01:00:58;;;;;;;6.00;5.27;;;;;;;4.61;100.00;99303.78;4975141;28;20238;-64
2022/09/30 01:03:24;;;;;;;8.53;5.83;;;;;;;4.64;100.00;99304.47;4999344;28;20187;-64
2022/09/30 01:05:50;;;;;;;9.97;5.87;;;;;;;4.70;100.00;99308.47;4976365;28;20197;-64
2022/09/30 01:08:19;;;;;;;8.13;5.50;;;;;;;4.69;100.00;99306.84;4991953;28;20195;-65
2022/09/30 01:10:45;;;;;;;7.53;6.27;;;;;;;4.67;100.00;99311.97;4986119;28;20289;-65
2022/09/30 01:13:11;;;;;;;7.13;6.43;;;;;;;4.60;100.00;99313.16;4995357;28;20191;-64
2022/09/30 01:16:05;;;;;;;6.30;5.20;;;;;;;4.52;100.00;99316.00;4994628;28;20262;-65
2022/09/30 01:18:41;;;;;;;7.10;6.10;;;;;;;4.53;100.00;99312.56;4995716;28;20198;-64
2022/09/30 01:21:43;;;;;;;7.03;6.23;;;;;;;4.44;100.00;99323.16;4985577;28;20296;-64
2022/09/30 01:24:34;;;;;;;6.10;5.10;;;;;;;4.39;100.00;99319.13;4994351;28;20233;-64
2022/09/30 01:27:15;;;;;;;7.07;5.43;;;;;;;4.48;100.00;99324.69;4994857;28;20179;-65
2022/09/30 01:30:05;;;;;;;6.57;5.97;;;;;;;4.47;100.00;99329.84;4991157;28;20293;-65
2022/09/30 01:32:42;;;;;;;10.17;6.47;;;;;;;4.40;100.00;99329.25;4984619;28;21128;-65
2022/09/30 01:35:24;;;;;;;7.87;6.27;;;;;;;4.46;100.00;99333.28;4992323;28;20233;-64
2022/09/30 01:37:57;;;;;;;6.23;5.40;;;;;;;4.38;100.00;99341.25;4992705;28;20187;-64
2022/09/30 01:40:27;;;;;;;7.87;5.90;;;;;;;4.36;100.00;99332.81;4985229;28;20232;-66
2022/09/30 01:43:06;;;;;;;7.20;5.97;;;;;;;4.47;100.00;99328.09;4993772;28;20243;-64
2022/09/30 01:45:48;;;;;;;8.07;6.70;;;;;;;4.20;100.00;99323.28;4995389;28;20643;-64
2022/09/30 01:48:25;;;;;;;7.13;5.73;;;;;;;4.10;100.00;99318.63;4994823;28;20191;-64
2022/09/30 01:51:06;;;;;;;6.33;5.67;;;;;;;4.10;100.00;99316.88;4980064;28;20276;-69
2022/09/30 01:53:42;;;;;;;7.70;6.47;;;;;;;4.22;100.00;99322.38;5001031;28;20266;-65
2022/09/30 01:56:17;;;;;;;9.07;5.83;;;;;;;4.24;100.00;99331.59;4995157;28;20183;-64
2022/09/30 01:59:05;;;;;;;7.30;6.10;;;;;;;4.29;100.00;99326.31;4993799;28;20198;-65
2022/09/30 02:01:35;;;;;;;8.77;6.50;;;;;;;4.34;100.00;99337.13;4992461;28;20310;-64
2022/09/30 02:04:08;;;;;;;6.63;5.93;;;;;;;4.30;100.00;99331.34;4998231;28;20184;-65
2022/09/30 02:06:44;;;;;;;7.33;6.17;;;;;;;4.27;100.00;99330.66;4990742;28;20187;-64
2022/09/30 02:09:15;;;;;;;9.33;5.97;;;;;;;4.25;100.00;99330.72;4995084;28;20203;-64
2022/09/30 02:11:41;;;;;;;7.50;5.63;;;;;;;4.30;100.00;99333.88;4983405;28;20334;-64
2022/09/30 02:14:20;;;;;;;6.47;5.60;;;;;;;4.27;100.00;99333.22;4990325;28;20545;-64
2022/09/30 02:16:51;;;;;;;9.03;5.50;;;;;;;4.29;100.00;99336.50;4995200;28;20246;-64
2022/09/30 02:19:24;;;;;;;7.17;4.87;;;;;;;4.30;100.00;99338.97;4994683;28;20192;-65
2022/09/30 02:21:58;;;;;;;8.77;5.30;;;;;;;4.20;100.00;99341.09;4974044;28;20218;-64
2022/09/30 02:24:28;;;;;;;6.07;5.20;;;;;;;4.13;100.00;99339.69;4995409;28;20179;-64
2022/09/30 02:26:56;;;;;;;5.93;5.23;;;;;;;4.12;100.00;99338.03;4992569;28;20191;-65
2022/09/30 02:29:27;;;;;;;7.40;5.67;;;;;;;4.02;100.00;99337.56;4991945;28;20211;-65
2022/09/30 02:31:58;;;;;;;7.50;5.20;;;;;;;4.02;100.00;99336.75;4979374;28;20238;-64
2022/09/30 02:34:29;;;;;;;6.10;5.50;;;;;;;3.99;100.00;99341.94;4992267;28;20199;-64
2022/09/30 02:37:03;;;;;;;6.80;5.37;;;;;;;3.93;100.00;99334.56;4994069;28;20690;-65
2022/09/30 02:39:38;;;;;;;6.50;5.77;;;;;;;3.77;100.00;99341.94;4994708;28;20194;-64
2022/09/30 02:42:12;;;;;;;7.93;5.97;;;;;;;3.69;100.00;99342.25;4969121;28;20230;-64
2022/09/30 02:44:38;;;;;;;7.27;5.80;;;;;;;3.81;100.00;99353.69;4991768;28;20183;-64
2022/09/30 02:47:16;;;;;;;7.07;5.90;;;;;;;3.75;100.00;99353.91;4994538;28;20223;-64
2022/09/30 02:50:04;;;;;;;6.23;5.33;;;;;;;3.71;100.00;99351.47;4990749;28;20290;-64
2022/09/30 02:53:11;;;;;;;6.73;6.13;;;;;;;3.69;100.00;99350.69;4976632;28;20227;-64
2022/09/30 02:55:46;;;;;;;6.97;6.23;;;;;;;3.79;100.00;99358.81;4955552;28;20211;-64
2022/09/30 02:58:20;;;;;;;8.50;6.37;;;;;;;3.71;100.00;99360.84;4990288;28;20179;-64
2022/09/30 03:00:47;;;;;;;6.33;5.60;;;;;;;3.75;100.00;99371.72;4962697;28;20232;-65
2022/09/30 03:03:27;;;;;;;9.63;6.40;;;;;;;3.77;100.00;99363.16;4965848;28;20213;-64
2022/09/30 03:05:53;;;;;;;8.47;6.10;;;;;;;3.81;100.00;99362.13;4991836;28;20222;-64
2022/09/30 03:08:18;;;;;;;7.57;6.47;;;;;;;3.79;100.00;99365.63;4992586;28;20213;-64
2022/09/30 03:10:49;;;;;;;7.57;6.60;;;;;;;3.59;100.00;99369.75;4984311;28;20238;-64
2022/09/30 03:13:52;;;;;;;8.10;5.83;;;;;;;3.55;100.00;99365.66;4998983;28;20730;-64
2022/09/30 03:16:54;;;;;;;10.90;6.80;;;;;;;3.45;100.00;99370.25;4976448;28;20237;-64
2022/09/30 03:19:39;;;;;;;7.37;6.37;;;;;;;3.42;100.00;99382.25;4984622;28;20187;-64
2022/09/30 03:22:10;;;;;;;6.17;5.67;;;;;;;3.52;100.00;99375.94;4971243;28;20219;-64
2022/09/30 03:24:52;;;;;;;6.33;5.27;;;;;;;3.58;100.00;99377.44;4991692;28;20187;-64
2022/09/30 03:27:55;;;;;;;6.97;6.20;;;;;;;3.46;100.00;99383.78;4983690;28;20179;-64
2022/09/30 03:30:27;;;;;;;9.90;7.20;;;;;;;3.62;100.00;99381.50;4961170;28;20358;-64
2022/09/30 03:33:09;;;;;;;7.70;6.23;;;;;;;3.53;100.00;99382.69;4989754;28;20185;-65
2022/09/30 03:35:59;;;;;;;9.70;6.03;;;;;;;3.51;100.00;99384.44;4990533;28;20197;-64
2022/09/30 03:38:45;;;;;;;8.13;6.23;;;;;;;3.68;100.00;99391.47;4991800;28;20275;-64
2022/09/30 03:41:29;;;;;;;6.97;6.27;;;;;;;3.61;100.00;99388.34;4987636;28;21022;-64
2022/09/30 03:44:13;;;;;;;7.67;6.97;;;;;;;3.65;100.00;99397.50;4990851;28;20213;-65
2022/09/30 03:46:43;;;;;;;8.53;7.20;;;;;;;3.68;100.00;99401.63;4991543;28;20734;-65
2022/09/30 03:49:18;;;;;;;8.90;6.87;;;;;;;3.64;100.00;99398.38;4991765;28;20203;-64
2022/09/30 03:51:44;;;;;;;7.77;6.97;;;;;;;3.70;100.00;99399.88;4994187;28;20247;-64
2022/09/30 03:54:11;;;;;;;8.67;7.57;;;;;;;3.72;100.00;99404.03;4994725;28;20183;-64
2022/09/30 03:56:41;;;;;;;9.77;8.77;;;;;;;3.63;100.00;99406.06;4991658;28;20272;-64
2022/09/30 03:59:09;;;;;;;7.80;6.77;;;;;;;3.59;100.00;99409.63;4992032;28;20257;-64
2022/09/30 04:01:34;;;;;;;11.47;7.40;;;;;;;3.59;100.00;99412.16;4980803;28;20230;-63
2022/09/30 04:04:00;;;;;;;7.53;6.70;;;;;;;3.62;100.00;99404.41;4986566;28;21051;-66
2022/09/30 04:06:25;;;;;;;8.87;6.93;;;;;;;3.58;100.00;99406.22;4991243;28;20202;-64
2022/09/30 04:08:52;;;;;;;10.20;6.70;;;;;;;3.53;100.00;99400.50;4986029;28;20249;-64
2022/09/30 04:11:18;;;;;;;9.30;5.93;;;;;;;3.51;100.00;99407.34;4984587;28;20236;-64
2022/09/30 04:13:43;;;;;;;8.27;5.97;;;;;;;3.51;100.00;99410.72;4991282;28;20543;-64
2022/09/30 04:16:08;;;;;;;5.87;5.33;;;;;;;3.46;100.00;99419.41;4991397;28;20556;-64
2022/09/30 04:18:37;;;;;;;7.07;6.03;;;;;;;3.43;100.00;99414.44;4992593;28;20553;-66
2022/09/30 04:21:09;;;;;;;7.30;6.00;;;;;;;3.33;100.00;99417.28;4984657;28;20267;-64
2022/09/30 04:23:36;;;;;;;7.27;6.60;;;;;;;3.43;100.00;99422.88;4999333;28;20262;-64
2022/09/30 04:26:02;;;;;;;7.17;6.00;;;;;;;3.40;100.00;99428.09;4991599;28;20678;-65
2022/09/30 04:28:27;;;;;;;7.00;6.30;;;;;;;3.32;100.00;99423.25;4999090;28;20196;-65
2022/09/30 04:30:53;;;;;;;7.57;6.23;;;;;;;3.34;100.00;99428.31;4987433;28;20254;-64
2022/09/30 04:33:18;;;;;;;7.50;6.43;;;;;;;3.35;100.00;99422.31;4991139;28;20353;-64
2022/09/30 04:35:43;;;;;;;9.07;6.33;;;;;;;3.31;100.00;99436.03;4992052;28;20224;-64
2022/09/30 04:38:08;;;;;;;8.93;6.90;;;;;;;3.22;100.00;99438.03;4991917;28;20187;-64
2022/09/30 04:40:37;;;;;;;7.57;6.57;;;;;;;3.32;100.00;99440.22;4981817;28;20276;-64
2022/09/30 04:43:04;;;;;;;10.23;6.37;;;;;;;3.31;100.00;99452.13;4977772;28;20191;-64
2022/09/30 04:45:30;;;;;;;8.53;6.97;;;;;;;3.23;100.00;99443.94;4991610;28;20525;-64
2022/09/30 04:47:55;;;;;;;7.63;6.57;;;;;;;3.15;100.00;99446.75;4990494;28;20241;-64
2022/09/30 04:50:20;;;;;;;8.03;6.60;;;;;;;3.28;100.00;99448.84;4981627;28;21370;-65
2022/09/30 04:52:46;;;;;;;10.80;6.93;;;;;;;3.31;100.00;99444.50;4979748;28;20236;-64
2022/09/30 04:55:12;;;;;;;7.60;6.60;;;;;;;3.28;100.00;99452.22;4983550;28;20192;-65
2022/09/30 04:57:37;;;;;;;9.60;6.73;;;;;;;3.21;100.00;99445.69;4991203;28;20205;-64
2022/09/30 05:00:04;;;;;;;10.93;6.50;;;;;;;3.18;100.00;99445.81;4985865;28;20189;-64
2022/09/30 05:02:31;;;;;;;8.40;6.57;;;;;;;3.17;100.00;99454.31;5002111;28;20204;-64
2022/09/30 05:04:56;;;;;;;10.67;6.23;;;;;;;3.05;100.00;99451.31;4991504;28;20283;-65
2022/09/30 05:07:21;;;;;;;9.23;7.17;;;;;;;3.07;100.00;99454.59;4991754;28;20305;-65
2022/09/30 05:09:46;;;;;;;9.87;6.30;;;;;;;3.09;100.00;99458.81;4992365;28;20276;-65
2022/09/30 05:12:13;;;;;;;7.33;6.57;;;;;;;3.12;100.00;99473.97;4982168;28;20320;-64
2022/09/30 05:14:38;;;;;;;9.50;7.70;;;;;;;3.13;100.00;99473.91;4990374;28;20189;-64
2022/09/30 05:17:03;;;;;;;8.63;7.00;;;;;;;3.11;100.00;99473.13;4992311;28;20192;-64
2022/09/30 05:19:29;;;;;;;12.70;6.93;;;;;;;3.13;100.00;99473.91;4992106;28;20273;-64
2022/09/30 05:21:55;;;;;;;7.70;6.90;;;;;;;3.11;100.00;99483.28;4981951;28;20592;-64
2022/09/30 05:24:20;;;;;;;10.50;7.17;;;;;;;3.14;100.00;99479.81;4991803;28;20185;-64
2022/09/30 05:26:46;;;;;;;15.43;7.40;;;;;;;3.15;100.00;99478.94;4989784;28;20292;-65
2022/09/30 05:29:11;;;;;;;9.37;6.83;;;;;;;3.25;100.00;99487.06;4992184;28;20207;-64
2022/09/30 05:31:36;;;;;;;9.10;6.73;;;;;;;3.23;100.00;99497.31;4973372;28;20610;-65
2022/09/30 05:34:03;;;;;;;8.67;7.13;;;;;;;3.22;100.00;99504.13;4991273;28;20661;-65
2022/09/30 05:36:28;;;;;;;9.20;8.03;;;;;;;3.25;100.00;99513.34;4991733;28;20183;-65
2022/09/30 05:38:54;;;;;;;10.37;7.60;;;;;;;3.39;100.00;99505.25;4992239;28;20240;-64
2022/09/30 05:41:20;;;;;;;9.43;7.60;;;;;;;3.44;100.00;99511.00;4986310;28;20225;-64
2022/09/30 05:43:49;;;;;;;9.83;7.00;;;;;;;3.45;100.00;99511.81;4995862;28;20191;-64
2022/09/30 05:46:16;;;;;;;10.03;7.97;;;;;;;3.60;100.00;99511.28;4990971;28;20917;-64
2022/09/30 05:48:41;;;;;;;10.93;8.10;;;;;;;3.70;100.00;99519.44;4990349;28;20257;-65
2022/09/30 05:51:08;;;;;;;8.97;7.27;;;;;;;3.69;100.00;99517.75;4982937;28;20684;-66
2022/09/30 05:53:37;;;;;;;8.53;7.63;;;;;;;3.70;100.00;99520.25;4989844;28;20244;-64
2022/09/30 05:56:03;;;;;;;9.10;6.87;;;;;;;3.73;100.00;99529.47;4990061;28;20188;-66
2022/09/30 05:58:28;;;;;;;7.73;6.60;;;;;;;3.79;100.00;99531.81;4978388;28;20199;-66
2022/09/30 06:00:54;;;;;;;7.33;6.57;;;;;;;3.85;100.00;99526.50;4971621;28;20230;-65
2022/09/30 06:03:19;;;;;;;7.80;6.67;;;;;;;3.84;100.00;99540.09;4978138;28;20254;-66
2022/09/30 06:05:45;;;;;;;7.63;6.10;;;;;;;3.95;100.00;99537.19;4974434;28;20227;-67
2022/09/30 06:08:11;;;;;;;11.13;7.00;;;;;;;3.97;100.00;99540.50;4990502;28;20186;-65
2022/09/30 06:10:42;;;;;;;9.97;6.90;;;;;;;4.02;100.00;99535.25;4980351;28;20234;-66
2022/09/30 06:13:09;;;;;;;7.80;6.57;;;;;;;4.03;100.00;99540.28;4982383;28;20230;-65
2022/09/30 06:15:36;;;;;;;9.50;6.70;;;;;;;3.80;100.00;99542.84;4975881;28;20180;-64
2022/09/30 06:18:02;;;;;;;7.33;6.63;;;;;;;3.81;100.00;99544.50;4990511;28;20191;-65
2022/09/30 06:20:27;;;;;;;7.67;5.80;;;;;;;4.25;100.00;99557.28;4972935;28;21051;-66
2022/09/30 06:22:53;;;;;;;6.47;5.83;;;;;;;5.50;100.00;99562.56;4974633;28;20188;-65
2022/09/30 06:25:18;;;;;;;6.53;5.33;;;;;;;6.56;100.00;99551.16;4992456;28;20266;-65
2022/09/30 06:27:45;;;;;;;5.40;4.90;;;;;;;8.00;100.00;99545.78;4986528;28;20701;-65
2022/09/30 06:30:11;;;;;;;5.20;4.43;;;;;;;9.51;100.00;99544.28;4981148;28;20350;-67
2022/09/30 06:32:36;;;;;;;5.27;4.10;;;;;;;9.89;100.00;99541.19;5003925;28;20285;-66
2022/09/30 06:35:03;;;;;;;4.63;3.00;;;;;;;10.28;100.00;99539.66;4985506;28;20207;-64
2022/09/30 06:37:28;;;;;;;4.27;3.87;;;;;;;11.58;100.00;99548.50;4981043;28;20581;-66
2022/09/30 06:39:54;;;;;;;4.97;3.90;;;;;;;12.73;96.42;99533.69;4988389;28;20241;-64
2022/09/30 06:42:22;;;;;;;3.37;3.07;;;;;;;13.31;86.70;99538.88;4987017;28;20379;-64
2022/09/30 06:44:47;;;;;;;4.37;2.90;;;;;;;13.84;81.31;99537.53;4990464;28;20188;-64
2022/09/30 06:47:13;;;;;;;4.43;3.50;;;;;;;14.16;76.58;99535.00;4991880;28;20253;-64
2022/09/30 06:49:39;;;;;;;6.43;3.47;;;;;;;14.34;68.34;99532.75;4985496;28;20219;-64
2022/09/30 06:52:04;;;;;;;6.70;3.70;;;;;;;13.63;76.35;99532.25;4984454;28;20258;-63
2022/09/30 06:54:29;;;;;;;4.70;3.53;;;;;;;14.05;70.88;99535.03;4977333;28;20223;-63
2022/09/30 06:56:56;;;;;;;4.90;3.13;;;;;;;13.74;69.07;99540.00;4979329;28;20189;-63
2022/09/30 06:59:25;;;;;;;5.90;3.53;;;;;;;13.76;68.48;99538.13;4980253;28;20191;-65
2022/09/30 07:01:50;;;;;;;5.47;3.80;;;;;;;14.24;69.97;99534.44;4974365;28;20272;-64
2022/09/30 07:04:15;;;;;;;4.40;3.60;;;;;;;15.32;64.47;99537.88;4987426;28;20195;-63
2022/09/30 07:06:41;;;;;;;5.63;3.10;;;;;;;16.72;55.27;99539.75;4983023;28;20196;-64
2022/09/30 07:09:08;;;;;;;4.43;3.30;;;;;;;17.43;49.65;99543.78;4992303;28;20666;-65
2022/09/30 07:11:35;;;;;;;5.17;3.40;;;;;;;17.40;49.31;99546.63;4985048;28;20675;-64
2022/09/30 07:14:00;;;;;;;4.97;2.90;;;;;;;16.97;51.56;99553.16;4991644;28;20207;-63
2022/09/30 07:16:25;;;;;;;4.43;2.77;;;;;;;16.34;53.11;99559.53;4983435;28;20270;-64
2022/09/30 07:18:51;;;;;;;5.70;3.03;;;;;;;16.38;53.97;99568.69;4985458;28;20187;-64
2022/09/30 07:21:16;;;;;;;6.10;3.37;;;;;;;16.06;57.11;99565.34;4989237;28;20230;-64
2022/09/30 07:23:46;;;;;;;6.07;3.10;;;;;;;17.31;51.45;99568.28;4977575;28;20184;-65
2022/09/30 07:26:15;;;;;;;4.97;3.00;;;;;;;18.61;46.14;99559.59;4981380;28;20196;-65
2022/09/30 07:28:42;;;;;;;3.20;2.90;;;;;;;19.52;43.01;99563.72;4988863;28;20194;-64
2022/09/30 07:31:10;;;;;;;4.13;3.03;;;;;;;18.84;43.97;99562.56;4957778;28;20228;-64
2022/09/30 07:33:37;;;;;;;4.17;3.07;;;;;;;18.10;47.75;99569.66;4981612;28;20756;-63
2022/09/30 07:36:07;;;;;;;8.20;3.47;;;;;;;18.58;44.94;99580.75;4982074;28;20552;-64
2022/09/30 07:38:35;;;;;;;5.20;2.90;;;;;;;18.91;44.63;99570.63;4989914;28;20199;-64
2022/09/30 07:41:09;;;;;;;4.33;3.03;;;;;;;16.24;52.89;99575.91;4974384;28;20729;-64
2022/09/30 07:43:39;;;;;;;5.40;3.50;;;;;;;14.72;64.43;99590.19;4985656;28;22263;-64
2022/09/30 07:46:05;;;;;;;5.93;4.00;;;;;;;13.22;76.26;99594.63;4981982;28;20223;-63
2022/09/30 07:51:02;;;;;;;6.53;3.57;;;;;;;12.30;87.47;99607.19;4982128;28;20242;-64
2022/09/30 07:53:27;;;;;;;5.07;3.23;;;;;;;11.70;95.01;99606.13;4989875;28;20598;-63
2022/09/30 07:55:53;;;;;;;4.47;3.77;;;;;;;11.63;97.10;99610.84;4989458;28;20261;-64
2022/09/30 07:58:18;;;;;;;3.60;3.30;;;;;;;11.39;99.05;99627.00;4989307;28;20187;-64
2022/09/30 08:00:48;;;;;;;4.63;3.53;;;;;;;11.08;100.00;99618.69;4977617;28;20223;-64
2022/09/30 08:03:13;;;;;;;5.90;3.60;;;;;;;10.90;100.00;99619.88;4988517;28;20187;-64
2022/09/30 08:05:40;;;;;;;5.47;3.87;;;;;;;10.61;100.00;99619.97;4992014;28;20187;-64
2022/09/30 08:08:05;;;;;;;6.20;3.73;;;;;;;10.21;100.00;99618.06;4991985;28;20471;-64
2022/09/30 08:10:35;;;;;;;5.33;4.83;;;;;;;10.05;100.00;99613.03;4986510;28;20249;-64
2022/09/30 08:13:01;;;;;;;6.30;4.60;;;;;;;9.98;100.00;99622.03;4991043;28;20248;-64
2022/09/30 08:15:26;;;;;;;7.53;4.40;;;;;;;9.69;100.00;99622.81;4990074;28;20179;-64
2022/09/30 08:17:51;;;;;;;6.17;5.23;;;;;;;9.73;100.00;99626.03;4990438;28;20209;-64
2022/09/30 08:20:16;;;;;;;6.80;5.80;;;;;;;10.04;100.00;99638.81;4978751;28;20175;-65
2022/09/30 08:22:42;;;;;;;7.17;5.93;;;;;;;10.22;100.00;99637.72;4966314;28;20647;-64
2022/09/30 08:25:07;;;;;;;8.60;6.60;;;;;;;10.38;100.00;99637.66;4984606;28;20183;-64
2022/09/30 08:27:32;;;;;;;11.23;6.67;;;;;;;9.84;100.00;99643.41;4990914;28;20230;-63
2022/09/30 08:29:58;;;;;;;11.50;6.93;;;;;;;9.82;100.00;99640.09;4990950;28;20214;-64
2022/09/30 08:32:23;;;;;;;7.37;6.67;;;;;;;10.17;100.00;99630.28;4981714;28;20231;-63
2022/09/30 08:34:48;;;;;;;12.77;7.80;;;;;;;10.08;100.00;99633.38;4991935;28;20701;-64
2022/09/30 08:37:13;;;;;;;9.77;7.27;;;;;;;10.41;100.00;99631.50;4990398;28;20651;-64
2022/09/30 08:39:39;;;;;;;15.00;7.13;;;;;;;10.69;100.00;99630.59;4991575;28;20209;-64
2022/09/30 08:42:21;;;;;;;9.30;8.40;;;;;;;10.07;100.00;99638.63;4984797;28;20368;-63
2022/09/30 08:44:48;;;;;;;12.37;8.10;;;;;;;10.38;100.00;99629.94;4988626;28;20198;-64
2022/09/30 08:47:44;;;;;;;9.60;8.10;;;;;;;10.68;100.00;99628.13;4991520;28;20235;-64
2022/09/30 08:50:21;;;;;;;9.83;7.70;;;;;;;10.84;100.00;99633.13;4981295;28;20246;-64
2022/09/30 08:52:50;;;;;;;13.93;7.80;;;;;;;11.15;100.00;99639.72;5004036;28;20291;-63
2022/09/30 08:55:25;;;;;;;10.47;7.17;;;;;;;12.75;100.00;99643.59;4990072;28;20725;-64
2022/09/30 08:57:54;;;;;;;6.53;5.87;;;;;;;14.47;86.28;99630.91;4992073;28;20244;-64
2022/09/30 09:00:21;;;;;;;7.90;5.90;;;;;;;16.52;72.70;99635.81;4980557;28;20182;-65
2022/09/30 09:02:52;;;;;;;12.23;5.90;;;;;;;19.21;55.32;99633.72;4984314;28;20644;-64
2022/09/30 09:05:52;;;;;;;7.97;5.10;;;;;;;18.66;52.00;99627.69;4990732;28;20183;-65
2022/09/30 09:08:39;;;;;;;8.87;5.50;;;;;;;19.62;47.41;99641.03;4990369;28;20187;-65
2022/09/30 09:11:37;;;;;;;10.37;5.63;;;;;;;20.53;45.97;99641.44;4980779;28;20274;-64
2022/09/30 09:14:18;;;;;;;7.43;6.13;;;;;;;20.99;43.20;99644.50;4979845;28;20592;-65
2022/09/30 09:17:10;;;;;;;6.43;5.00;;;;;;;22.99;38.81;99654.97;4988046;28;20194;-65
2022/09/30 09:19:43;;;;;;;11.07;5.27;;;;;;;24.73;35.67;99661.84;4991939;28;20670;-63
2022/09/30 09:22:09;;;;;;;10.77;5.03;;;;;;;25.82;33.73;99657.25;4979352;28;20730;-64
2022/09/30 09:24:43;;;;;;;10.20;5.63;;;;;;;26.05;32.84;99662.22;4990248;28;20257;-63
2022/09/30 09:27:24;;;;;;;8.57;4.93;;;;;;;26.05;32.61;99659.59;4990853;28;20581;-63
2022/09/30 09:30:07;;;;;;;8.07;4.93;;;;;;;25.65;34.00;99659.38;4990441;28;20195;-63
2022/09/30 09:32:33;;;;;;;8.27;5.40;;;;;;;23.25;36.09;99659.06;4981866;28;20233;-63
2022/09/30 09:35:05;;;;;;;10.40;5.55;;;;;;;24.61;34.96;99660.66;4992125;28;20693;-64
2022/09/30 09:40:57;;;;;;;5.97;4.82;;;;;;;26.80;31.06;99666.75;4984686;28;20284;-64
2022/09/30 09:43:34;;;;;;;8.30;4.93;;;;;;;27.58;29.71;99681.19;4981768;28;20191;-64
2022/09/30 09:46:31;;;;;;;6.82;5.13;;;;;;;28.37;29.27;99681.19;4992432;28;20226;-64
2022/09/30 09:49:30;;;;;;;8.50;4.82;;;;;;;26.91;30.07;99683.81;4993500;28;20195;-64
2022/09/30 09:51:59;;;;;;;9.00;5.35;;;;;;;27.49;30.00;99680.59;4907748;29;20229;-64
2022/09/30 09:54:29;;;;;;;7.97;5.50;;;;;;;26.81;30.41;99686.06;4911919;29;20194;-64
2022/09/30 09:57:03;;;;;;;10.65;5.45;;;;;;;26.02;30.49;99677.59;4935124;29;20198;-64
2022/09/30 09:59:29;;;;;;;11.48;5.38;;;;;;;27.53;28.81;99675.72;4935072;29;20268;-64
2022/09/30 10:01:54;;;;;;;8.45;5.00;;;;;;;27.48;28.89;99672.91;4918629;29;20689;-67
2022/09/30 10:04:22;;;;;;;8.05;4.95;;;;;;;27.05;29.94;99672.28;4935081;29;20248;-64
2022/09/30 10:06:49;;;;;;;6.82;4.82;;;;;;;27.59;29.81;99666.97;4935552;29;20204;-64
2022/09/30 10:09:23;;;;;;;7.70;4.13;;;;;;;27.59;28.66;99669.63;4931216;29;20276;-64
2022/09/30 10:11:48;;;;;;;6.57;4.45;;;;;;;28.58;27.80;99679.22;4927546;29;20288;-64
2022/09/30 10:14:20;;;;;;;7.75;3.92;;;;;;;26.12;30.54;99670.16;4932694;29;20194;-64
2022/09/30 10:16:46;;;;;;;6.60;4.53;;;;;;;23.17;35.77;99673.06;4936704;29;20213;-64
2022/09/30 10:19:25;;;;;;;5.18;4.30;;;;;;;22.27;36.32;99661.28;4934662;29;20256;-64
2022/09/30 10:22:11;;;;;;;6.78;5.25;;;;;;;16.82;52.70;99670.44;4918378;29;20304;-63
2022/09/30 10:24:38;;;;;;;5.90;4.70;;;;;;;17.55;53.56;99658.81;4925962;29;20581;-63
2022/09/30 10:27:24;;;;;;;8.60;5.80;;;;;;;16.11;61.37;99671.31;4954691;28;20199;-63
2022/09/30 10:29:49;;;;;;;6.50;5.30;;;;;;;15.90;62.76;99672.19;4993936;28;20722;-63
2022/09/30 10:32:15;;;;;;;11.33;5.73;;;;;;;15.80;67.70;99666.09;4980466;28;20222;-63
2022/09/30 10:34:43;;;;;;;8.47;5.63;;;;;;;16.13;69.60;99659.84;4985245;28;20207;-63
2022/09/30 10:37:21;;;;;;;7.90;5.40;;;;;;;15.82;70.05;99661.63;4994425;28;20590;-64
2022/09/30 10:40:06;;;;;;;10.00;5.10;;;;;;;15.20;71.09;99656.28;4993496;28;20222;-63
2022/09/30 10:42:34;;;;;;;4.67;3.63;;;;;;;15.27;70.35;99651.41;4981897;28;20308;-63
2022/09/30 10:45:15;;;;;;;4.90;3.30;;;;;;;15.00;71.60;99643.16;4994201;28;20651;-63
2022/09/30 10:47:48;;;;;;;4.00;3.10;;;;;;;14.66;66.68;99650.19;4989853;28;20241;-63
2022/09/30 10:50:19;;;;;;;5.07;2.60;;;;;;;14.11;63.36;99650.13;4984027;28;20370;-64
2022/09/30 10:53:03;;;;;;;4.03;3.30;;;;;;;14.07;71.53;99648.72;4988252;28;20641;-63
2022/09/30 10:55:40;;;;;;;7.07;3.80;;;;;;;14.09;70.96;99647.66;4993869;28;20195;-64
2022/09/30 10:58:24;;;;;;;7.53;3.90;;;;;;;14.08;75.45;99656.34;4993676;28;20234;-64
2022/09/30 11:00:56;;;;;;;5.47;3.83;;;;;;;13.70;80.83;99641.97;4967546;28;20251;-64
2022/09/30 11:03:34;;;;;;;4.70;2.97;;;;;;;13.82;81.33;99646.22;4982909;28;20179;-65
2022/09/30 11:06:00;;;;;;;6.57;3.60;;;;;;;14.09;79.38;99644.25;4992802;28;20191;-65
2022/09/30 11:08:43;;;;;;;5.37;4.00;;;;;;;14.30;76.81;99641.75;4993038;28;20190;-64
2022/09/30 11:11:28;;;;;;;11.17;4.37;;;;;;;14.27;70.96;99632.47;4978570;28;20237;-64
2022/09/30 11:13:59;;;;;;;8.30;3.67;;;;;;;14.40;71.86;99631.53;4986042;28;20364;-65
2022/09/30 11:16:49;;;;;;;4.13;3.10;;;;;;;14.20;69.37;99641.66;4981144;28;20235;-64
2022/09/30 11:19:28;;;;;;;3.73;3.20;;;;;;;14.25;73.47;99639.56;4993616;28;20194;-64
2022/09/30 11:22:18;;;;;;;5.97;3.10;;;;;;;14.23;67.42;99632.81;4983209;28;20329;-65
2022/09/30 11:24:47;;;;;;;4.03;3.33;;;;;;;14.14;70.37;99637.78;4991946;28;20253;-65
2022/09/30 11:27:41;;;;;;;4.33;3.90;;;;;;;14.30;70.09;99637.44;4993495;28;20258;-64
2022/09/30 11:30:14;;;;;;;3.97;3.50;;;;;;;14.25;70.33;99636.13;4965809;28;20238;-65
2022/09/30 11:32:53;;;;;;;4.97;3.63;;;;;;;14.30;68.03;99628.81;4959350;28;20656;-64
2022/09/30 11:35:25;;;;;;;3.47;2.57;;;;;;;14.15;63.48;99626.50;4992086;28;20234;-65
2022/09/30 11:38:14;;;;;;;5.23;3.07;;;;;;;14.19;65.65;99629.69;4993400;28;20191;-65
2022/09/30 11:41:11;;;;;;;5.60;3.20;;;;;;;14.41;71.01;99636.56;4982342;28;20231;-64
2022/09/30 11:44:20;;;;;;;6.53;3.73;;;;;;;14.56;73.24;99631.16;4983463;28;20195;-64
2022/09/30 11:47:05;;;;;;;5.80;4.03;;;;;;;14.71;72.18;99639.50;4983106;28;20230;-65
2022/09/30 11:49:58;;;;;;;7.23;3.10;;;;;;;14.60;71.80;99635.97;4993167;28;20207;-64
2022/09/30 11:52:37;;;;;;;6.97;3.47;;;;;;;14.47;71.59;99633.50;4981337;28;20703;-65
2022/09/30 11:55:19;;;;;;;4.60;3.43;;;;;;;14.50;73.37;99632.47;4990877;28;20187;-64
2022/09/30 11:58:00;;;;;;;4.33;3.60;;;;;;;14.54;72.97;99633.84;4986484;28;20666;-64
2022/09/30 12:00:29;;;;;;;8.27;3.47;;;;;;;14.79;71.74;99630.16;4985359;28;20234;-64